Louisville International Standiford Field
KSDF : now visible

Airfield :











YOU CAN JOIN US ON...

 
LOGIN :

Register | Disclaimer

   EN    FR    IT 

 









Legend :    VFR   Marginal VFR   IFR   Intensive IFR   Very Intensive IFR
Visi :
Ceiling :
>= 8 km
>= 3000ft
5 to 8 km
1000 to 3000 ft
1500m to 5 km
500 to 1000 ft
800 to 1500m
200 to 500 ft
< 800m
< 200 ft
Symbols :   Thunderstorms  Fog  Heavy snow  Heavy precipitations  Wind > 20 kt






- Airport Elevation : 501 ft
- IATA code : SDF


KSDF - Louisville International Standiford Field

CURRENT METAR :
  • 201656Z 00000KT 7SM OVC006 14/12 A3019 RMK AO2 RAE29 SLP221 P0000 T01440122

EXPIRED METARs :
  • 201556Z 01008KT 4SM -RA BR OVC005 13/12 A3019 RMK AO2 RAB02E13B53 SLP223 VIS SW-W 2 1/2 P0000 T01330117
  • 201456Z 01005KT 6SM BR OVC006 13/11 A3020 RMK AO2 SLP224 60001 T01280111 53007

TAF KSDF
Valid from the 20 at 12:00 until the 21 at 18:00 UTC


201120Z 2012/2118 35005KT P6SM -RA OVC004
TEMPO 2012/2014 4SM -RA BR
FM201400 33005KT P6SM OVC008
FM201700 15005KT P6SM OVC015
FM202300 15006KT P6SM BKN035
KZID FIR / North America



MET'MAP, your aeronautical weather chart ! - Copyright ORBIFLY December 2007 - Disclaimer

ORBIFLY MET'MAP TEAM :

Programming & Development : Alexandra Zaïnal
Concept & original design : Baudouin d'Aumeries
Assistance for programming : Marc-Olivier Méhu
Technical & hardware support : Manuel Goepfert

Contact : metmap@orbifly.com




SOURCES & CREDITS :

   NOAA       Earth
Advisory